Terminal Aerodrome Forecast
Issued by NWS

Home | Current Version | Previous Version | Text Only | Print | Product List | Glossary On
Versions: 1 2 3 4 5 6 7 8 9 10 11 12 13 14 15
000
FTUS43 KUNR 282100 AAA
TAFGCC
TAF AMD
KGCC 282100Z 2821/2918 VRB05KT P6SM BKN040
     FM282200 01007KT 2SM -SN OVC010
     FM290000 01010KT 3/4SM -SN VV006
     FM291200 02011KT 2SM -SN OVC015=

USA.gov is the U.S. government's official web portal to all federal, state and local government web resources and services.